THA222 VTSP-VTBS
Flight info
| Callsign | THA222 |
|---|---|
| Flight time | 1h 6m |
| Altitude | 41000 |
| Route | EMRIT Y99 NONEL Y98 LEBIM |
| Aircraft | A359/H-SDE2E3GHIJ1J4J5M1RWYZ/LB2D1 |
Departure
| Time | 2026-05-05 15:40 |
|---|---|
| Airport | Phuket International Airport (VTSP) |
Arrival
| Time | 2026-05-05 16:46 |
|---|---|
| Airport | Suvarnabhumi Airport (VTBS) |
| Time | Latitude | Longitude | Altitude | Speed | Heading |
|---|---|---|---|---|---|
| 2026-05-05 15:15 | 8.10844 | 98.30525 | 34 ft | 0 kts | 105° |
| 2026-05-05 15:32 | 8.10844 | 98.30523 | 34 ft | 2 kts | 105° |
| 2026-05-05 15:32 | 8.10851 | 98.30498 | 33 ft | 4 kts | 104° |
| 2026-05-05 15:32 | 8.10856 | 98.30472 | 33 ft | 4 kts | 94° |
| 2026-05-05 15:33 | 8.10856 | 98.30450 | 33 ft | 4 kts | 60° |
| 2026-05-05 15:33 | 8.10850 | 98.30442 | 32 ft | 3 kts | 15° |
| 2026-05-05 15:33 | 8.10825 | 98.30435 | 31 ft | 3 kts | 15° |
| 2026-05-05 15:33 | 8.10821 | 98.30434 | 31 ft | 0 kts | 15° |
| 2026-05-05 15:37 | 8.10824 | 98.30435 | 31 ft | 3 kts | 15° |
| 2026-05-05 15:37 | 8.10869 | 98.30448 | 31 ft | 10 kts | 15° |
| 2026-05-05 15:37 | 8.10958 | 98.30470 | 33 ft | 16 kts | 13° |
| 2026-05-05 15:37 | 8.11032 | 98.30470 | 33 ft | 6 kts | 310° |
| 2026-05-05 15:38 | 8.11040 | 98.30425 | 33 ft | 8 kts | 267° |
| 2026-05-05 15:38 | 8.11038 | 98.30373 | 33 ft | 5 kts | 298° |
| 2026-05-05 15:38 | 8.11068 | 98.30356 | 33 ft | 6 kts | 349° |
| 2026-05-05 15:38 | 8.11122 | 98.30349 | 33 ft | 10 kts | 353° |
| 2026-05-05 15:39 | 8.11189 | 98.30354 | 33 ft | 8 kts | 39° |
| 2026-05-05 15:39 | 8.11201 | 98.30402 | 33 ft | 11 kts | 84° |
| 2026-05-05 15:39 | 8.11230 | 98.30701 | 35 ft | 86 kts | 84° |
| 2026-05-05 15:39 | 8.11314 | 98.31577 | 47 ft | 162 kts | 83° |
| 2026-05-05 15:40 | 8.11404 | 98.32750 | 811 ft | 164 kts | 85° |
| 2026-05-05 15:40 | 8.11496 | 98.33893 | 1821 ft | 162 kts | 84° |
| 2026-05-05 15:40 | 8.11599 | 98.34999 | 2565 ft | 161 kts | 83° |
| 2026-05-05 15:40 | 8.11713 | 98.36125 | 3187 ft | 161 kts | 82° |
| 2026-05-05 15:41 | 8.11846 | 98.37324 | 3569 ft | 185 kts | 83° |
| 2026-05-05 15:41 | 8.11992 | 98.38725 | 3856 ft | 216 kts | 84° |
| 2026-05-05 15:41 | 8.12142 | 98.40323 | 4247 ft | 242 kts | 84° |
| 2026-05-05 15:41 | 8.12306 | 98.42073 | 4873 ft | 256 kts | 84° |
| 2026-05-05 15:42 | 8.12476 | 98.43886 | 5725 ft | 263 kts | 84° |
| 2026-05-05 15:42 | 8.12652 | 98.45733 | 6670 ft | 265 kts | 85° |
| 2026-05-05 15:42 | 8.12822 | 98.47574 | 7526 ft | 269 kts | 85° |
| 2026-05-05 15:42 | 8.12997 | 98.49466 | 8434 ft | 273 kts | 85° |
| 2026-05-05 15:43 | 8.13176 | 98.51387 | 9368 ft | 277 kts | 85° |
| 2026-05-05 15:43 | 8.13357 | 98.53334 | 10241 ft | 282 kts | 85° |
| 2026-05-05 15:43 | 8.13547 | 98.55366 | 10775 ft | 299 kts | 85° |
| 2026-05-05 15:43 | 8.13745 | 98.57496 | 11437 ft | 309 kts | 85° |
| 2026-05-05 15:44 | 8.13945 | 98.59676 | 12229 ft | 315 kts | 85° |
| 2026-05-05 15:44 | 8.13943 | 98.61900 | 13015 ft | 321 kts | 96° |
| 2026-05-05 15:44 | 8.13610 | 98.64190 | 13444 ft | 339 kts | 100° |
| 2026-05-05 15:44 | 8.13173 | 98.66591 | 13786 ft | 356 kts | 100° |
| 2026-05-05 15:45 | 8.12720 | 98.69080 | 14259 ft | 364 kts | 100° |
| 2026-05-05 15:45 | 8.12265 | 98.71615 | 14808 ft | 370 kts | 100° |
| 2026-05-05 15:45 | 8.11807 | 98.74187 | 15387 ft | 374 kts | 100° |
| 2026-05-05 15:45 | 8.11346 | 98.76793 | 15942 ft | 379 kts | 100° |
| 2026-05-05 15:46 | 8.10884 | 98.79428 | 16513 ft | 383 kts | 99° |
| 2026-05-05 15:46 | 8.10572 | 98.82110 | 17095 ft | 387 kts | 94° |
| 2026-05-05 15:46 | 8.10475 | 98.84838 | 17664 ft | 391 kts | 90° |
| 2026-05-05 15:46 | 8.10492 | 98.87596 | 18223 ft | 395 kts | 89° |
| 2026-05-05 15:47 | 8.10558 | 98.90384 | 18703 ft | 399 kts | 88° |
| 2026-05-05 15:47 | 8.10614 | 98.92239 | 19037 ft | 401 kts | 88° |
| 2026-05-05 15:47 | 8.11159 | 98.95972 | 19705 ft | 405 kts | 75° |
| 2026-05-05 15:47 | 8.12195 | 98.98623 | 20214 ft | 409 kts | 62° |
| 2026-05-05 15:48 | 8.13792 | 99.01003 | 20711 ft | 413 kts | 52° |
| 2026-05-05 15:48 | 8.15659 | 99.03219 | 21219 ft | 416 kts | 49° |
| 2026-05-05 15:48 | 8.17653 | 99.05359 | 21723 ft | 420 kts | 47° |
| 2026-05-05 15:48 | 8.19702 | 99.07469 | 22232 ft | 423 kts | 46° |
| 2026-05-05 15:49 | 8.21780 | 99.09593 | 22741 ft | 426 kts | 46° |
| 2026-05-05 15:49 | 8.23861 | 99.11738 | 23220 ft | 430 kts | 46° |
| 2026-05-05 15:49 | 8.25951 | 99.13916 | 23678 ft | 433 kts | 47° |
| 2026-05-05 15:49 | 8.28013 | 99.16088 | 24069 ft | 436 kts | 47° |
| 2026-05-05 15:50 | 8.30107 | 99.18309 | 24493 ft | 439 kts | 47° |
| 2026-05-05 15:50 | 8.32241 | 99.20581 | 24948 ft | 441 kts | 47° |
| 2026-05-05 15:50 | 8.34356 | 99.22836 | 25412 ft | 444 kts | 47° |
| 2026-05-05 15:50 | 8.36454 | 99.25077 | 25880 ft | 447 kts | 47° |
| 2026-05-05 15:51 | 8.38600 | 99.27363 | 26388 ft | 450 kts | 47° |
| 2026-05-05 15:51 | 8.40809 | 99.29613 | 26891 ft | 454 kts | 43° |
| 2026-05-05 15:51 | 8.43307 | 99.31582 | 27391 ft | 458 kts | 34° |
| 2026-05-05 15:51 | 8.46124 | 99.33124 | 27893 ft | 463 kts | 24° |
| 2026-05-05 15:52 | 8.49207 | 99.34130 | 28387 ft | 469 kts | 13° |
| 2026-05-05 15:52 | 8.52450 | 99.34588 | 28889 ft | 474 kts | 7° |
| 2026-05-05 15:52 | 8.55751 | 99.34829 | 29371 ft | 478 kts | 5° |
| 2026-05-05 15:52 | 8.59084 | 99.34985 | 29850 ft | 481 kts | 4° |
| 2026-05-05 15:53 | 8.62446 | 99.35109 | 30254 ft | 485 kts | 4° |
| 2026-05-05 15:53 | 8.65820 | 99.35233 | 30650 ft | 487 kts | 4° |
| 2026-05-05 15:53 | 8.69219 | 99.35370 | 31043 ft | 490 kts | 4° |
| 2026-05-05 15:53 | 8.72634 | 99.35520 | 31436 ft | 492 kts | 4° |
| 2026-05-05 15:54 | 8.76065 | 99.35684 | 31824 ft | 494 kts | 4° |
| 2026-05-05 15:54 | 8.79508 | 99.35857 | 32167 ft | 497 kts | 4° |
| 2026-05-05 15:54 | 8.82974 | 99.36031 | 32520 ft | 500 kts | 4° |
| 2026-05-05 15:54 | 8.86461 | 99.36205 | 32872 ft | 502 kts | 4° |
| 2026-05-05 15:55 | 8.89962 | 99.36381 | 33170 ft | 505 kts | 4° |
| 2026-05-05 15:55 | 8.93477 | 99.36558 | 33580 ft | 505 kts | 4° |
| 2026-05-05 15:55 | 8.96981 | 99.36734 | 34045 ft | 504 kts | 4° |
| 2026-05-05 15:55 | 9.00478 | 99.36909 | 34476 ft | 502 kts | 4° |
| 2026-05-05 15:56 | 9.03961 | 99.37083 | 34898 ft | 500 kts | 4° |
| 2026-05-05 15:56 | 9.07430 | 99.37257 | 35327 ft | 499 kts | 4° |
| 2026-05-05 15:56 | 9.10890 | 99.37431 | 35739 ft | 497 kts | 3° |
| 2026-05-05 15:56 | 9.14344 | 99.37603 | 36149 ft | 496 kts | 3° |
| 2026-05-05 15:57 | 9.16622 | 99.37717 | 36423 ft | 495 kts | 3° |
| 2026-05-05 15:57 | 9.21212 | 99.37960 | 36995 ft | 493 kts | 5° |
| 2026-05-05 15:57 | 9.23464 | 99.38226 | 37245 ft | 492 kts | 9° |
| 2026-05-05 15:57 | 9.26796 | 99.38982 | 37633 ft | 490 kts | 15° |
| 2026-05-05 15:58 | 9.30077 | 99.39910 | 38013 ft | 489 kts | 16° |
| 2026-05-05 15:58 | 9.33334 | 99.40900 | 38375 ft | 489 kts | 17° |
| 2026-05-05 15:58 | 9.36578 | 99.41916 | 38712 ft | 487 kts | 17° |
| 2026-05-05 15:58 | 9.40858 | 99.43269 | 39102 ft | 486 kts | 17° |
| 2026-05-05 15:59 | 9.43043 | 99.43959 | 39286 ft | 486 kts | 17° |
| 2026-05-05 15:59 | 9.46270 | 99.44978 | 39578 ft | 485 kts | 17° |
| 2026-05-05 15:59 | 9.49491 | 99.45987 | 39865 ft | 484 kts | 17° |
| 2026-05-05 15:59 | 9.52666 | 99.46973 | 40143 ft | 483 kts | 16° |
| 2026-05-05 16:00 | 9.55875 | 99.47969 | 40439 ft | 482 kts | 17° |
| 2026-05-05 16:00 | 9.59086 | 99.48969 | 40736 ft | 481 kts | 17° |
| 2026-05-05 16:00 | 9.62284 | 99.49967 | 40874 ft | 481 kts | 17° |
| 2026-05-05 16:01 | 9.68668 | 99.51955 | 40892 ft | 480 kts | 16° |
| 2026-05-05 16:01 | 9.75052 | 99.53942 | 40898 ft | 480 kts | 16° |
| 2026-05-05 16:02 | 9.81448 | 99.55937 | 40901 ft | 480 kts | 16° |
| 2026-05-05 16:02 | 9.87841 | 99.57924 | 40906 ft | 481 kts | 16° |
| 2026-05-05 16:03 | 9.94233 | 99.59924 | 40909 ft | 480 kts | 16° |
| 2026-05-05 16:03 | 10.00609 | 99.61920 | 40920 ft | 479 kts | 17° |
| 2026-05-05 16:04 | 10.06987 | 99.63896 | 40914 ft | 480 kts | 16° |
| 2026-05-05 16:04 | 10.13387 | 99.65885 | 40915 ft | 481 kts | 16° |
| 2026-05-05 16:05 | 10.19733 | 99.67872 | 40917 ft | 479 kts | 16° |
| 2026-05-05 16:05 | 10.26174 | 99.69895 | 40924 ft | 480 kts | 16° |
| 2026-05-05 16:06 | 10.32533 | 99.71875 | 40918 ft | 482 kts | 16° |
| 2026-05-05 16:06 | 10.38958 | 99.73880 | 40918 ft | 483 kts | 16° |
| 2026-05-05 16:07 | 10.45366 | 99.75886 | 40918 ft | 481 kts | 16° |
| 2026-05-05 16:07 | 10.51775 | 99.77903 | 40913 ft | 481 kts | 17° |
| 2026-05-05 16:08 | 10.58201 | 99.79907 | 40914 ft | 482 kts | 16° |
| 2026-05-05 16:08 | 10.64624 | 99.81923 | 40917 ft | 483 kts | 16° |
| 2026-05-05 16:09 | 10.71042 | 99.83930 | 40914 ft | 483 kts | 16° |
| 2026-05-05 16:09 | 10.77482 | 99.85948 | 40918 ft | 486 kts | 16° |
| 2026-05-05 16:10 | 10.83937 | 99.87980 | 40908 ft | 486 kts | 16° |
| 2026-05-05 16:10 | 10.90207 | 99.90464 | 40914 ft | 485 kts | 26° |
| 2026-05-05 16:11 | 10.96164 | 99.93702 | 40906 ft | 485 kts | 28° |
| 2026-05-05 16:12 | 11.07990 | 100.00417 | 40904 ft | 488 kts | 27° |
| 2026-05-05 16:13 | 11.22840 | 100.08762 | 40909 ft | 489 kts | 27° |
| 2026-05-05 16:13 | 11.28786 | 100.12109 | 40906 ft | 487 kts | 28° |
| 2026-05-05 16:14 | 11.40640 | 100.18799 | 40909 ft | 487 kts | 28° |
| 2026-05-05 16:15 | 11.51501 | 100.24916 | 40905 ft | 490 kts | 27° |
| 2026-05-05 16:16 | 11.63305 | 100.31621 | 40911 ft | 485 kts | 28° |
| 2026-05-05 16:17 | 11.72197 | 100.36646 | 40906 ft | 488 kts | 28° |
| 2026-05-05 16:18 | 11.81095 | 100.41669 | 40904 ft | 486 kts | 28° |
| 2026-05-05 16:18 | 11.87389 | 100.44067 | 40897 ft | 483 kts | 6° |
| 2026-05-05 16:19 | 11.90728 | 100.44346 | 40674 ft | 479 kts | 1° |
| 2026-05-05 16:19 | 11.94072 | 100.44461 | 40429 ft | 482 kts | 0° |
| 2026-05-05 16:19 | 12.00791 | 100.44620 | 39547 ft | 484 kts | 0° |
| 2026-05-05 16:20 | 12.07515 | 100.44786 | 38018 ft | 488 kts | 0° |
| 2026-05-05 16:20 | 12.14313 | 100.44954 | 36624 ft | 488 kts | 0° |
| 2026-05-05 16:21 | 12.21117 | 100.45126 | 35188 ft | 490 kts | 1° |
| 2026-05-05 16:22 | 12.31453 | 100.45392 | 32605 ft | 500 kts | 1° |
| 2026-05-05 16:22 | 12.38442 | 100.45569 | 30759 ft | 505 kts | 1° |
| 2026-05-05 16:23 | 12.45499 | 100.45746 | 28956 ft | 506 kts | 1° |
| 2026-05-05 16:23 | 12.48993 | 100.45834 | 28277 ft | 499 kts | 1° |
| 2026-05-05 16:23 | 12.55861 | 100.46008 | 26924 ft | 489 kts | 1° |
| 2026-05-05 16:24 | 12.59250 | 100.46092 | 26263 ft | 485 kts | 1° |
| 2026-05-05 16:24 | 12.62611 | 100.46177 | 25587 ft | 480 kts | 1° |
| 2026-05-05 16:24 | 12.69230 | 100.46345 | 24281 ft | 471 kts | 1° |
| 2026-05-05 16:25 | 12.72499 | 100.46428 | 23629 ft | 467 kts | 1° |
| 2026-05-05 16:25 | 12.78940 | 100.46591 | 22230 ft | 457 kts | 1° |
| 2026-05-05 16:25 | 12.82096 | 100.46670 | 21600 ft | 451 kts | 1° |
| 2026-05-05 16:26 | 12.88263 | 100.46827 | 20299 ft | 442 kts | 1° |
| 2026-05-05 16:26 | 12.94331 | 100.46981 | 19411 ft | 424 kts | 2° |
| 2026-05-05 16:27 | 12.97224 | 100.47054 | 19288 ft | 407 kts | 2° |
| 2026-05-05 16:27 | 13.00000 | 100.47123 | 19159 ft | 392 kts | 2° |
| 2026-05-05 16:27 | 13.02674 | 100.47193 | 18999 ft | 378 kts | 2° |
| 2026-05-05 16:27 | 13.05272 | 100.47259 | 18709 ft | 371 kts | 2° |
| 2026-05-05 16:28 | 13.07842 | 100.47474 | 18154 ft | 372 kts | 12° |
| 2026-05-05 16:28 | 13.10238 | 100.48427 | 17564 ft | 370 kts | 32° |
| 2026-05-05 16:28 | 13.12368 | 100.49888 | 17080 ft | 367 kts | 36° |
| 2026-05-05 16:28 | 13.14439 | 100.51407 | 16621 ft | 364 kts | 36° |
| 2026-05-05 16:29 | 13.16497 | 100.52915 | 16157 ft | 363 kts | 36° |
| 2026-05-05 16:29 | 13.18546 | 100.54409 | 15708 ft | 361 kts | 36° |
| 2026-05-05 16:29 | 13.20590 | 100.55896 | 15260 ft | 359 kts | 36° |
| 2026-05-05 16:29 | 13.22620 | 100.57370 | 14808 ft | 356 kts | 36° |
| 2026-05-05 16:30 | 13.24637 | 100.58831 | 14362 ft | 354 kts | 36° |
| 2026-05-05 16:30 | 13.26638 | 100.60280 | 13921 ft | 352 kts | 36° |
| 2026-05-05 16:30 | 13.28554 | 100.61669 | 13634 ft | 349 kts | 36° |
| 2026-05-05 16:30 | 13.30538 | 100.63102 | 13378 ft | 348 kts | 36° |
| 2026-05-05 16:31 | 13.32517 | 100.64530 | 13119 ft | 347 kts | 36° |
| 2026-05-05 16:31 | 13.34487 | 100.65953 | 12859 ft | 346 kts | 36° |
| 2026-05-05 16:31 | 13.36449 | 100.67370 | 12623 ft | 344 kts | 36° |
| 2026-05-05 16:31 | 13.38405 | 100.68782 | 12383 ft | 343 kts | 36° |
| 2026-05-05 16:32 | 13.40352 | 100.70187 | 12189 ft | 342 kts | 36° |
| 2026-05-05 16:32 | 13.42294 | 100.71592 | 11979 ft | 341 kts | 36° |
| 2026-05-05 16:32 | 13.44228 | 100.72997 | 11726 ft | 340 kts | 36° |
| 2026-05-05 16:32 | 13.46152 | 100.74391 | 11473 ft | 338 kts | 36° |
| 2026-05-05 16:33 | 13.48073 | 100.75782 | 11141 ft | 337 kts | 36° |
| 2026-05-05 16:33 | 13.49983 | 100.77165 | 10708 ft | 333 kts | 36° |
| 2026-05-05 16:33 | 13.51819 | 100.78495 | 10503 ft | 321 kts | 36° |
| 2026-05-05 16:33 | 13.53632 | 100.79809 | 10302 ft | 310 kts | 36° |
| 2026-05-05 16:34 | 13.55449 | 100.80930 | 10054 ft | 302 kts | 24° |
| 2026-05-05 16:34 | 13.57428 | 100.81590 | 9735 ft | 297 kts | 16° |
| 2026-05-05 16:34 | 13.59424 | 100.82123 | 9321 ft | 295 kts | 15° |
| 2026-05-05 16:34 | 13.61374 | 100.82640 | 8906 ft | 293 kts | 15° |
| 2026-05-05 16:35 | 13.63337 | 100.83171 | 8456 ft | 291 kts | 16° |
| 2026-05-05 16:35 | 13.65297 | 100.83705 | 8053 ft | 290 kts | 15° |
| 2026-05-05 16:35 | 13.67241 | 100.84231 | 7660 ft | 288 kts | 15° |
| 2026-05-05 16:35 | 13.69173 | 100.84754 | 7410 ft | 287 kts | 15° |
| 2026-05-05 16:36 | 13.71104 | 100.85282 | 7174 ft | 287 kts | 15° |
| 2026-05-05 16:36 | 13.73025 | 100.85807 | 6941 ft | 286 kts | 15° |
| 2026-05-05 16:36 | 13.74942 | 100.86333 | 6702 ft | 285 kts | 15° |
| 2026-05-05 16:36 | 13.76838 | 100.86855 | 6562 ft | 276 kts | 15° |
| 2026-05-05 16:37 | 13.78657 | 100.87350 | 6435 ft | 265 kts | 15° |
| 2026-05-05 16:37 | 13.80400 | 100.87827 | 6295 ft | 255 kts | 16° |
| 2026-05-05 16:37 | 13.82100 | 100.88293 | 6046 ft | 250 kts | 16° |
| 2026-05-05 16:37 | 13.83770 | 100.88751 | 5833 ft | 246 kts | 16° |
| 2026-05-05 16:38 | 13.85414 | 100.89207 | 5695 ft | 246 kts | 16° |
| 2026-05-05 16:38 | 13.87074 | 100.89664 | 5496 ft | 247 kts | 16° |
| 2026-05-05 16:38 | 13.88752 | 100.90054 | 5242 ft | 247 kts | 8° |
| 2026-05-05 16:38 | 13.90444 | 100.89834 | 4991 ft | 249 kts | 337° |
| 2026-05-05 16:39 | 13.91771 | 100.88733 | 4726 ft | 248 kts | 304° |
| 2026-05-05 16:39 | 13.92433 | 100.87113 | 4441 ft | 246 kts | 284° |
| 2026-05-05 16:39 | 13.92821 | 100.85399 | 4174 ft | 245 kts | 278° |
| 2026-05-05 16:39 | 13.92708 | 100.83676 | 3938 ft | 242 kts | 247° |
| 2026-05-05 16:40 | 13.91701 | 100.82348 | 3694 ft | 236 kts | 215° |
| 2026-05-05 16:40 | 13.90256 | 100.81630 | 3539 ft | 226 kts | 194° |
| 2026-05-05 16:40 | 13.88762 | 100.81268 | 3416 ft | 216 kts | 191° |
| 2026-05-05 16:40 | 13.87324 | 100.80916 | 3301 ft | 208 kts | 192° |
| 2026-05-05 16:41 | 13.85973 | 100.80561 | 3242 ft | 195 kts | 193° |
| 2026-05-05 16:41 | 13.84705 | 100.80209 | 3042 ft | 188 kts | 193° |
| 2026-05-05 16:41 | 13.83455 | 100.79872 | 2800 ft | 185 kts | 193° |
| 2026-05-05 16:41 | 13.82220 | 100.79550 | 2551 ft | 181 kts | 193° |
| 2026-05-05 16:42 | 13.81028 | 100.79235 | 2313 ft | 172 kts | 193° |
| 2026-05-05 16:42 | 13.79912 | 100.78940 | 2086 ft | 159 kts | 193° |
| 2026-05-05 16:42 | 13.78865 | 100.78663 | 1905 ft | 152 kts | 193° |
| 2026-05-05 16:42 | 13.77847 | 100.78394 | 1719 ft | 151 kts | 193° |
| 2026-05-05 16:43 | 13.76831 | 100.78126 | 1523 ft | 148 kts | 194° |
| 2026-05-05 16:43 | 13.75859 | 100.77868 | 1326 ft | 141 kts | 193° |
| 2026-05-05 16:43 | 13.74930 | 100.77623 | 1155 ft | 136 kts | 194° |
| 2026-05-05 16:43 | 13.74043 | 100.77388 | 989 ft | 136 kts | 193° |
| 2026-05-05 16:44 | 13.73130 | 100.77148 | 815 ft | 135 kts | 193° |
| 2026-05-05 16:44 | 13.72218 | 100.76901 | 640 ft | 135 kts | 195° |
| 2026-05-05 16:44 | 13.71310 | 100.76658 | 464 ft | 135 kts | 194° |
| 2026-05-05 16:44 | 13.70402 | 100.76425 | 309 ft | 134 kts | 194° |
| 2026-05-05 16:45 | 13.69495 | 100.76187 | 132 ft | 134 kts | 196° |
| 2026-05-05 16:45 | 13.68594 | 100.75948 | 31 ft | 129 kts | 195° |
| 2026-05-05 16:45 | 13.67814 | 100.75747 | 17 ft | 100 kts | 194° |
| 2026-05-05 16:45 | 13.67247 | 100.75595 | 19 ft | 67 kts | 194° |
| 2026-05-05 16:46 | 13.66889 | 100.75500 | 19 ft | 37 kts | 197° |
| 2026-05-05 16:46 | 13.66692 | 100.75373 | 19 ft | 30 kts | 224° |
| 2026-05-05 16:46 | 13.66667 | 100.75265 | 19 ft | 9 kts | 326° |
| 2026-05-05 16:46 | 13.66738 | 100.75273 | 19 ft | 12 kts | 16° |
| 2026-05-05 16:47 | 13.66798 | 100.75290 | 19 ft | 15 kts | 15° |
| 2026-05-05 16:47 | 13.66951 | 100.75331 | 19 ft | 19 kts | 13° |
| 2026-05-05 16:47 | 13.67040 | 100.75353 | 19 ft | 21 kts | 13° |
| 2026-05-05 16:47 | 13.67246 | 100.75406 | 19 ft | 25 kts | 14° |
| 2026-05-05 16:48 | 13.67360 | 100.75436 | 19 ft | 26 kts | 15° |
| 2026-05-05 16:48 | 13.67547 | 100.75485 | 19 ft | 29 kts | 14° |
| 2026-05-05 16:48 | 13.67750 | 100.75538 | 19 ft | 31 kts | 14° |
| 2026-05-05 16:48 | 13.67968 | 100.75596 | 19 ft | 33 kts | 15° |
| 2026-05-05 16:49 | 13.68199 | 100.75657 | 19 ft | 35 kts | 14° |
| 2026-05-05 16:49 | 13.68434 | 100.75717 | 20 ft | 29 kts | 14° |
| 2026-05-05 16:49 | 13.68603 | 100.75764 | 20 ft | 26 kts | 14° |
| 2026-05-05 16:49 | 13.68788 | 100.75812 | 20 ft | 29 kts | 14° |
| 2026-05-05 16:50 | 13.68984 | 100.75864 | 20 ft | 28 kts | 14° |
| 2026-05-05 16:50 | 13.69114 | 100.75856 | 19 ft | 10 kts | 298° |
| 2026-05-05 16:50 | 13.69128 | 100.75778 | 19 ft | 13 kts | 280° |
| 2026-05-05 16:50 | 13.69151 | 100.75679 | 19 ft | 16 kts | 284° |
| 2026-05-05 16:51 | 13.69217 | 100.75626 | 19 ft | 12 kts | 5° |
| 2026-05-05 16:51 | 13.69303 | 100.75647 | 19 ft | 13 kts | 14° |
| 2026-05-05 16:51 | 13.69347 | 100.75649 | 21 ft | 3 kts | 329° |
| 2026-05-05 16:51 | 13.69358 | 100.75634 | 19 ft | 2 kts | 294° |
| 2026-05-05 16:52 | 13.69366 | 100.75607 | 19 ft | 6 kts | 286° |
| 2026-05-05 16:52 | 13.69375 | 100.75572 | 19 ft | 1 kts | 285° |